Darstellungsparameter: Aktuell verwendete Einstellungen:
Skalierung der Graphiken ... ?
xyx+y,   Skalierungsfaktor:      Skalierung: Modus: x, Faktor: 1
Darstellungszeitraum ... ?
Vom - - bis: - -   Zeitraum: 09.01.2021 - 22.01.2021
Min/Max/Avg-Anzeige ... ?
Zeige MMA aktuell
Zeige MMA Monat
Zeige MMA alles
Zeige --A aktuell
Zeige --A Monat
Zeige --A alles
Keine MMA-Anzeige
MMA:
Average (ber die Originaldaten)
MMA-Basis: 09.01.2021 - 22.01.2021
Quicknavigation für Darstellung... ?
Tage:      1T, 2T, 3T, 5T -1T -2T -3T -5T +1T +2T +3T +5T
Wochen: 1W, 2W, 3W -1W -2W -3W +1W +2W +3W
Monate: 1M, 3M, 6M -1M -3M -6M +1M +3M +6M
Jahre:    1J, 3J, 5J, 10J -1J -3J -5J -10J +1J +3J +5J +10J
Nutze für die Darstellung ... ?
Originaldaten oder ...
Mittelwerte Minima Maxima auf...
Stundenbasis Tagesbasis Wochenbasis
Monatsbasis Jahresbasis      Datenbasis: Mittelwerte auf Stundenbasis
Darstellen als:
Statistik (Auto) Statistik J:M      Darstellung:
Zur Graphik,    zurück zur Übersicht aller Sensoren.
 
Tabellarische Datenbersicht: ?
 
Sensor: Nr:Datum:Temp:Abs-Feuchte:Windchill:Wind:
Aussen-T/F 1 09-01-2021 00:00:00 0.69167 C 4.88 g/m*3 0.69 C 1.86667 km/h
2 09-01-2021 01:00:00 0.89167 C 4.95 g/m*3 0.89 C 0.8 km/h
3 09-01-2021 02:00:00 1 C 4.98 g/m*3 1 C 0.13333 km/h
4 09-01-2021 03:00:00 1.10833 C 5.02 g/m*3 1.11 C 0.66667 km/h
5 09-01-2021 04:00:00 0.85 C 4.95 g/m*3 0.85 C 0.93333 km/h
6 09-01-2021 05:00:00 0.9 C 5 g/m*3 0.9 C 0.26667 km/h
7 09-01-2021 06:00:00 0.94167 C 5.01 g/m*3 0.94 C 0.66667 km/h
8 09-01-2021 07:00:00 1.025 C 5.04 g/m*3 1.02 C 0.53333 km/h
9 09-01-2021 08:00:00 1.06667 C 5.05 g/m*3 1.07 C 0.8 km/h
10 09-01-2021 09:00:00 1.01667 C 4.99 g/m*3 1.02 C 0.26667 km/h
11 09-01-2021 10:00:00 0.91667 C 4.98 g/m*3 0.92 C 0.4 km/h
12 09-01-2021 11:00:00 1.10833 C 5.03 g/m*3 1.11 C 1.60833 km/h
13 09-01-2021 12:00:00 1.34167 C 5.07 g/m*3 1.34 C 2.41667 km/h
14 09-01-2021 13:00:00 2.15833 C 5.1 g/m*3 2.16 C 3.35 km/h
15 09-01-2021 14:00:00 2.875 C 5.14 g/m*3 2.88 C 3.2 km/h
16 09-01-2021 15:00:00 2.925 C 5.03 g/m*3 2.93 C 4.13333 km/h
17 09-01-2021 16:00:00 2.5 C 5.05 g/m*3 2.5 C 1.33333 km/h
18 09-01-2021 17:00:00 1.64167 C 4.93 g/m*3 1.64 C 0.4 km/h
19 09-01-2021 18:00:00 1.3 C 4.91 g/m*3 1.3 C 0 km/h
20 09-01-2021 19:00:00 1.26667 C 4.96 g/m*3 1.27 C 0 km/h
21 09-01-2021 20:00:00 1.16667 C 4.93 g/m*3 1.17 C 0 km/h
22 09-01-2021 21:00:00 1.09167 C 4.94 g/m*3 1.09 C 0 km/h
23 09-01-2021 22:00:00 1.19167 C 5 g/m*3 1.19 C 0 km/h
24 09-01-2021 23:00:00 1.25 C 5.02 g/m*3 1.25 C 0 km/h
25 10-01-2021 00:00:00 0.96667 C 4.92 g/m*3 0.97 C 0 km/h
Sensor: Nr:Datum:Temp:Abs-Feuchte:Windchill:Wind:
Aussen-T/F 26 10-01-2021 01:00:00 0.83333 C 4.9 g/m*3 0.83 C 0 km/h
27 10-01-2021 02:00:00 0.9 C 4.95 g/m*3 0.9 C 0 km/h
28 10-01-2021 03:00:00 0.95833 C 4.97 g/m*3 0.96 C 0 km/h
29 10-01-2021 04:00:00 0.88333 C 4.94 g/m*3 0.88 C 0 km/h
30 10-01-2021 05:00:00 0.7 C 4.88 g/m*3 0.7 C 0 km/h
31 10-01-2021 06:00:00 0.71667 C 4.89 g/m*3 0.72 C 0 km/h
32 10-01-2021 07:00:00 0.84167 C 4.93 g/m*3 0.84 C 0 km/h
33 10-01-2021 08:00:00 0.70833 C 4.88 g/m*3 0.71 C 0 km/h
34 10-01-2021 09:00:00 0.775 C 4.91 g/m*3 0.78 C 0 km/h
35 10-01-2021 10:00:00 1.24167 C 5.08 g/m*3 1.24 C 0 km/h
36 10-01-2021 11:00:00 1.775 C 5.22 g/m*3 1.78 C 0.8 km/h
37 10-01-2021 12:00:00 2.325 C 5.21 g/m*3 2.33 C 1.86667 km/h
38 10-01-2021 13:00:00 2.88333 C 5.12 g/m*3 2.88 C 1.33333 km/h
39 10-01-2021 14:00:00 3.21667 C 4.99 g/m*3 3.22 C 1.46667 km/h
40 10-01-2021 15:00:00 3.325 C 4.9 g/m*3 3.33 C 0.4 km/h
41 10-01-2021 16:00:00 2.80833 C 5.01 g/m*3 2.81 C 0.93333 km/h
42 10-01-2021 17:00:00 0.91667 C 4.55 g/m*3 0.92 C 4.26667 km/h
43 10-01-2021 18:00:00 -0.45833 C 4.28 g/m*3 -0.46 C 1.2 km/h
44 10-01-2021 19:00:00 -1.075 C 4.17 g/m*3 -1.08 C 0 km/h
45 10-01-2021 20:00:00 -1.65833 C 4.04 g/m*3 -1.66 C 0 km/h
46 10-01-2021 21:00:00 -2.08333 C 3.94 g/m*3 -2.08 C 0 km/h
47 10-01-2021 22:00:00 -2.35833 C 3.9 g/m*3 -2.36 C 0 km/h
48 10-01-2021 23:00:00 -2.70833 C 3.81 g/m*3 -2.71 C 0.13333 km/h
49 11-01-2021 00:00:00 -2.975 C 3.74 g/m*3 -2.98 C 0.13333 km/h
50 11-01-2021 01:00:00 -3.30833 C 3.65 g/m*3 -3.31 C 0.13333 km/h
Sensor: Nr:Datum:Temp:Abs-Feuchte:Windchill:Wind:
Aussen-T/F 51 11-01-2021 02:00:00 -2.94167 C 3.77 g/m*3 -2.94 C 0.13333 km/h
52 11-01-2021 03:00:00 -3.30833 C 3.65 g/m*3 -3.31 C 0 km/h
53 11-01-2021 04:00:00 -3.59167 C 3.58 g/m*3 -3.59 C 0 km/h
54 11-01-2021 05:00:00 -3.86667 C 3.51 g/m*3 -3.87 C 0 km/h
55 11-01-2021 06:00:00 -4.125 C 3.46 g/m*3 -4.13 C 0 km/h
56 11-01-2021 07:00:00 -3.925 C 3.53 g/m*3 -3.93 C 0.66667 km/h
57 11-01-2021 08:00:00 -3.36667 C 3.67 g/m*3 -3.37 C 1.2 km/h
58 11-01-2021 09:00:00 -2.6 C 3.88 g/m*3 -2.6 C 0.93333 km/h
59 11-01-2021 10:00:00 -1.30833 C 4.18 g/m*3 -3.24 C 5.35 km/h
60 11-01-2021 11:00:00 0.08333 C 4.32 g/m*3 -2.66 C 8.05 km/h
61 11-01-2021 12:00:00 1.01667 C 4.35 g/m*3 -2.32 C 10.88333 km/h
62 11-01-2021 13:00:00 1.825 C 4.43 g/m*3 -1.22 C 10.35 km/h
63 11-01-2021 14:00:00 2.26667 C 4.55 g/m*3 0.07 C 7.525 km/h
64 11-01-2021 15:00:00 2.375 C 4.68 g/m*3 2.38 C 3.74167 km/h
65 11-01-2021 16:00:00 2.33333 C 4.86 g/m*3 2.33 C 0.53333 km/h
66 11-01-2021 17:00:00 1.79167 C 4.85 g/m*3 1.79 C 2 km/h
67 11-01-2021 18:00:00 1.66667 C 4.82 g/m*3 1.67 C 1.86667 km/h
68 11-01-2021 19:00:00 1.76667 C 4.82 g/m*3 1.77 C 3.34167 km/h
69 11-01-2021 20:00:00 2 C 4.88 g/m*3 2 C 4.14167 km/h
70 11-01-2021 21:00:00 2.325 C 4.93 g/m*3 0.9 C 5.35833 km/h
71 11-01-2021 22:00:00 2.49167 C 5.01 g/m*3 0.73 C 6.3 km/h
72 11-01-2021 23:00:00 2.8 C 5.11 g/m*3 0.07 C 9.81667 km/h
73 12-01-2021 00:00:00 3 C 5.24 g/m*3 -0.24 C 12.35833 km/h
74 12-01-2021 01:00:00 3.26667 C 5.38 g/m*3 -0.65 C 16.63333 km/h
75 12-01-2021 02:00:00 3.34167 C 5.42 g/m*3 -0.23 C 14.63333 km/h
Sensor: Nr:Datum:Temp:Abs-Feuchte:Windchill:Wind:
Aussen-T/F 76 12-01-2021 03:00:00 3.51667 C 5.54 g/m*3 -0.02 C 14.63333 km/h
77 12-01-2021 04:00:00 3.725 C 5.59 g/m*3 -0.47 C 19.45 km/h
78 12-01-2021 05:00:00 3.875 C 5.63 g/m*3 -0.78 C 23.6 km/h
79 12-01-2021 06:00:00 3.85833 C 5.67 g/m*3 -0.74 C 23.04167 km/h
80 12-01-2021 07:00:00 3.79167 C 5.66 g/m*3 -0.78 C 22.64167 km/h
81 12-01-2021 08:00:00 3.95833 C 5.66 g/m*3 -0.91 C 25.86667 km/h
82 12-01-2021 09:00:00 4.14167 C 5.69 g/m*3 -0.76 C 26.69167 km/h
83 12-01-2021 10:00:00 4.41667 C 5.8 g/m*3 -0.2 C 24.66667 km/h
84 12-01-2021 11:00:00 4.68333 C 5.96 g/m*3 0.69 C 19.83333 km/h
85 12-01-2021 12:00:00 5.05 C 6.15 g/m*3 1.35 C 18.23333 km/h
86 12-01-2021 13:00:00 5.225 C 6.3 g/m*3 1.82 C 16.36667 km/h
87 12-01-2021 14:00:00 5.18333 C 6.47 g/m*3 2.75 C 10.61667 km/h
88 12-01-2021 15:00:00 5.40833 C 6.63 g/m*3 2.86 C 11.41667 km/h
89 12-01-2021 16:00:00 5.45 C 6.58 g/m*3 3.42 C 9.00833 km/h
90 12-01-2021 17:00:00 4.56667 C 6.12 g/m*3 2.88 C 7.10833 km/h
91 12-01-2021 18:00:00 3.25833 C 5.65 g/m*3 3.26 C 4.95 km/h
92 12-01-2021 19:00:00 2.45833 C 5.41 g/m*3 2.46 C 4.80833 km/h
93 12-01-2021 20:00:00 2.75 C 5.47 g/m*3 1.5 C 5.075 km/h
94 12-01-2021 21:00:00 3.05 C 5.45 g/m*3 1.61 C 5.64167 km/h
95 12-01-2021 22:00:00 2.96667 C 5.38 g/m*3 2.97 C 3.46667 km/h
96 12-01-2021 23:00:00 2.14167 C 5.21 g/m*3 2.14 C 2.8 km/h
97 13-01-2021 00:00:00 1.93333 C 5.2 g/m*3 1.93 C 2.8 km/h
98 13-01-2021 01:00:00 1.59167 C 5.1 g/m*3 1.59 C 4.275 km/h
99 13-01-2021 02:00:00 1.7 C 5.1 g/m*3 -0.8 C 8.2 km/h
100 13-01-2021 03:00:00 1.73333 C 5 g/m*3 -0.92 C 8.75833 km/h
Sensor: Nr:Datum:Temp:Abs-Feuchte:Windchill:Wind:
Aussen-T/F 101 13-01-2021 04:00:00 1.63333 C 4.91 g/m*3 -0.96 C 8.475 km/h
102 13-01-2021 05:00:00 1.66667 C 4.89 g/m*3 -1.07 C 9.01667 km/h
103 13-01-2021 06:00:00 1.775 C 4.92 g/m*3 -1.04 C 9.39167 km/h
104 13-01-2021 07:00:00 1.91667 C 4.92 g/m*3 -0.92 C 9.56667 km/h
105 13-01-2021 08:00:00 1.75833 C 4.93 g/m*3 -0.61 C 7.78333 km/h
106 13-01-2021 09:00:00 1.31667 C 4.9 g/m*3 -1.66 C 9.69167 km/h
107 13-01-2021 10:00:00 1.94167 C 5.14 g/m*3 -0.63 C 8.61667 km/h
108 13-01-2021 11:00:00 2.95 C 5.35 g/m*3 0.04 C 10.75833 km/h
109 13-01-2021 12:00:00 3.74167 C 5.45 g/m*3 0.59 C 12.76667 km/h
110 13-01-2021 13:00:00 4.15833 C 5.43 g/m*3 1.3 C 11.68333 km/h
111 13-01-2021 14:00:00 4.63333 C 5.3 g/m*3 1.98 C 11.15833 km/h
112 13-01-2021 15:00:00 4.05833 C 5.12 g/m*3 1.37 C 10.76667 km/h
113 13-01-2021 16:00:00 2.99167 C 5.01 g/m*3 0.57 C 8.75833 km/h
114 13-01-2021 17:00:00 2.39167 C 4.96 g/m*3 0.71 C 6.04167 km/h
115 13-01-2021 18:00:00 1.91667 C 4.95 g/m*3 1.92 C 2.53333 km/h
116 13-01-2021 19:00:00 1.8 C 5 g/m*3 1.8 C 4.26667 km/h
117 13-01-2021 20:00:00 2.03333 C 5.12 g/m*3 2.03 C 4.4 km/h
118 13-01-2021 21:00:00 2.49167 C 5.21 g/m*3 0.5 C 6.98333 km/h
119 13-01-2021 22:00:00 3.39167 C 5.18 g/m*3 1.5 C 7.11667 km/h
120 13-01-2021 23:00:00 3.725 C 5.2 g/m*3 1.69 C 7.8 km/h
121 14-01-2021 00:00:00 4.10833 C 5.45 g/m*3 1.67 C 9.68333 km/h
122 14-01-2021 01:00:00 4.05 C 5.8 g/m*3 1.79 C 8.86667 km/h
123 14-01-2021 02:00:00 3.76667 C 5.77 g/m*3 1.71 C 7.925 km/h
124 14-01-2021 03:00:00 3.56667 C 5.52 g/m*3 2.01 C 6.175 km/h
125 14-01-2021 04:00:00 3.275 C 5.19 g/m*3 1.59 C 6.44167 km/h
Sensor: Nr:Datum:Temp:Abs-Feuchte:Windchill:Wind:
Aussen-T/F 126 14-01-2021 05:00:00 2.61667 C 4.71 g/m*3 2.62 C 3.74167 km/h
127 14-01-2021 06:00:00 2.05 C 4.72 g/m*3 2.05 C 0.66667 km/h
128 14-01-2021 07:00:00 1.51667 C 4.63 g/m*3 1.52 C 0.66667 km/h
129 14-01-2021 08:00:00 1.36667 C 4.61 g/m*3 1.37 C 0.93333 km/h
130 14-01-2021 09:00:00 1.375 C 4.72 g/m*3 1.38 C 0.13333 km/h
131 14-01-2021 10:00:00 1.90833 C 4.8 g/m*3 1.91 C 0.53333 km/h
132 14-01-2021 11:00:00 2.425 C 4.72 g/m*3 1.02 C 5.34167 km/h
133 14-01-2021 12:00:00 2.625 C 4.65 g/m*3 0.94 C 6.15 km/h
134 14-01-2021 13:00:00 2.95 C 4.69 g/m*3 1.26 C 6.3 km/h
135 14-01-2021 14:00:00 3.11667 C 4.67 g/m*3 3.12 C 3.33333 km/h
136 14-01-2021 15:00:00 3.09167 C 4.7 g/m*3 3.09 C 2.13333 km/h
137 14-01-2021 16:00:00 2.63333 C 4.77 g/m*3 2.63 C 0.13333 km/h
138 14-01-2021 17:00:00 1.36667 C 4.6 g/m*3 1.37 C 1.06667 km/h
139 14-01-2021 18:00:00 0.89167 C 4.53 g/m*3 0.89 C 1.73333 km/h
140 14-01-2021 19:00:00 0.275 C 4.42 g/m*3 0.28 C 1.06667 km/h
141 14-01-2021 20:00:00 0.15833 C 4.46 g/m*3 0.16 C 1.875 km/h
142 14-01-2021 21:00:00 0.08333 C 4.39 g/m*3 0.08 C 1.06667 km/h
143 14-01-2021 22:00:00 -0.375 C 4.25 g/m*3 -0.38 C 1.06667 km/h
144 14-01-2021 23:00:00 -0.70833 C 4.15 g/m*3 -0.71 C 2 km/h
145 15-01-2021 00:00:00 -1.05833 C 4.06 g/m*3 -1.06 C 0.8 km/h
146 15-01-2021 01:00:00 -1.55 C 3.96 g/m*3 -1.55 C 0.8 km/h
147 15-01-2021 02:00:00 -2.04167 C 3.82 g/m*3 -2.04 C 0.66667 km/h
148 15-01-2021 03:00:00 -2.425 C 3.77 g/m*3 -2.42 C 0.13333 km/h
149 15-01-2021 04:00:00 -2.26667 C 3.85 g/m*3 -2.27 C 0.4 km/h
150 15-01-2021 05:00:00 -1.65833 C 4 g/m*3 -1.66 C 0 km/h
Sensor: Nr:Datum:Temp:Abs-Feuchte:Windchill:Wind:
Aussen-T/F 151 15-01-2021 06:00:00 -1.16667 C 4.1 g/m*3 -1.17 C 0 km/h
152 15-01-2021 07:00:00 -0.81667 C 4.17 g/m*3 -0.82 C 0 km/h
153 15-01-2021 08:00:00 -0.66667 C 4.2 g/m*3 -0.67 C 0 km/h
154 15-01-2021 09:00:00 -0.28333 C 4.29 g/m*3 -0.28 C 0 km/h
155 15-01-2021 10:00:00 -0.18333 C 4.28 g/m*3 -0.18 C 0.4 km/h
156 15-01-2021 11:00:00 0.10833 C 4.17 g/m*3 0.11 C 4.14167 km/h
157 15-01-2021 12:00:00 2.05 C 4.29 g/m*3 -0.75 C 9.55 km/h
158 15-01-2021 13:00:00 2.35 C 4.43 g/m*3 -0.26 C 9.00833 km/h
159 15-01-2021 14:00:00 2.45 C 4.52 g/m*3 0.24 C 7.65 km/h
160 15-01-2021 15:00:00 2.55833 C 4.63 g/m*3 0.62 C 6.84167 km/h
161 15-01-2021 16:00:00 2.325 C 4.66 g/m*3 0.35 C 6.84167 km/h
162 15-01-2021 17:00:00 2 C 4.58 g/m*3 2 C 2.13333 km/h
163 15-01-2021 18:00:00 1.71667 C 4.58 g/m*3 1.72 C 3.34167 km/h
164 15-01-2021 19:00:00 1.51667 C 4.66 g/m*3 1.52 C 3.73333 km/h
165 15-01-2021 20:00:00 1.39167 C 4.62 g/m*3 1.39 C 4 km/h
166 15-01-2021 21:00:00 1.24167 C 4.6 g/m*3 1.24 C 3.75 km/h
167 15-01-2021 22:00:00 1.11667 C 4.55 g/m*3 1.12 C 3.74167 km/h
168 15-01-2021 23:00:00 1.075 C 4.59 g/m*3 1.08 C 4 km/h
169 16-01-2021 00:00:00 0.85833 C 4.49 g/m*3 0.86 C 2.40833 km/h
170 16-01-2021 01:00:00 0.9 C 4.14 g/m*3 -1.21 C 6.59167 km/h
171 16-01-2021 02:00:00 0.79167 C 4.05 g/m*3 0.79 C 4.4 km/h
172 16-01-2021 03:00:00 0.625 C 4.07 g/m*3 0.63 C 2.4 km/h
173 16-01-2021 04:00:00 0.28333 C 4.1 g/m*3 0.28 C 0.13333 km/h
174 16-01-2021 05:00:00 0.09167 C 4.16 g/m*3 0.09 C 0.93333 km/h
175 16-01-2021 06:00:00 0.14167 C 4.15 g/m*3 0.14 C 0.8 km/h
Sensor: Nr:Datum:Temp:Abs-Feuchte:Windchill:Wind:
Aussen-T/F 176 16-01-2021 07:00:00 -0.05 C 4.16 g/m*3 -0.05 C 0.13333 km/h
177 16-01-2021 08:00:00 -0.15 C 4.19 g/m*3 -0.15 C 0 km/h
178 16-01-2021 09:00:00 0.04167 C 4.24 g/m*3 0.04 C 0.4 km/h
179 16-01-2021 10:00:00 0.83333 C 4.19 g/m*3 0.83 C 2.53333 km/h
180 16-01-2021 11:00:00 1.28333 C 4.21 g/m*3 1.28 C 4.675 km/h
181 16-01-2021 12:00:00 1.55 C 4.13 g/m*3 -0.45 C 6.55833 km/h
182 16-01-2021 13:00:00 1.6 C 4.05 g/m*3 0.19 C 5.09167 km/h
183 16-01-2021 14:00:00 1.4 C 3.87 g/m*3 1.4 C 3.33333 km/h
184 16-01-2021 15:00:00 1.25833 C 3.79 g/m*3 1.26 C 4.01667 km/h
185 16-01-2021 16:00:00 0.84167 C 3.8 g/m*3 0.84 C 1.06667 km/h
186 16-01-2021 17:00:00 -0.04167 C 3.92 g/m*3 -0.04 C 0 km/h
187 16-01-2021 18:00:00 -0.38333 C 3.93 g/m*3 -0.38 C 0 km/h
188 16-01-2021 19:00:00 -0.18333 C 4.02 g/m*3 -0.18 C 0.4 km/h
189 16-01-2021 20:00:00 -0.00833 C 4.25 g/m*3 -0.01 C 0.93333 km/h
190 16-01-2021 21:00:00 -0.28333 C 4.37 g/m*3 -0.28 C 0.4 km/h
191 16-01-2021 22:00:00 -0.44167 C 4.39 g/m*3 -0.44 C 0.53333 km/h
192 16-01-2021 23:00:00 -0.68333 C 4.34 g/m*3 -0.68 C 0.26667 km/h
193 17-01-2021 00:00:00 -0.78333 C 4.31 g/m*3 -0.78 C 0 km/h
194 17-01-2021 01:00:00 -0.975 C 4.26 g/m*3 -0.98 C 0 km/h
195 17-01-2021 02:00:00 -1.16667 C 4.2 g/m*3 -1.17 C 0 km/h
196 17-01-2021 03:00:00 -1.2 C 4.19 g/m*3 -1.2 C 0 km/h
197 17-01-2021 04:00:00 -1.16667 C 4.24 g/m*3 -1.17 C 0 km/h
198 17-01-2021 05:00:00 -1.03333 C 4.28 g/m*3 -1.03 C 0 km/h
199 17-01-2021 06:00:00 -0.85833 C 4.34 g/m*3 -0.86 C 0.13333 km/h
200 17-01-2021 07:00:00 -0.75 C 4.37 g/m*3 -0.75 C 0 km/h
Sensor: Nr:Datum:Temp:Abs-Feuchte:Windchill:Wind:
Aussen-T/F 201 17-01-2021 08:00:00 -0.65833 C 4.4 g/m*3 -0.66 C 0 km/h
202 17-01-2021 09:00:00 -0.25 C 4.53 g/m*3 -0.25 C 0.53333 km/h
203 17-01-2021 10:00:00 0.23333 C 4.68 g/m*3 0.23 C 0.4 km/h
204 17-01-2021 11:00:00 0.68333 C 4.82 g/m*3 0.68 C 0 km/h
205 17-01-2021 12:00:00 1.075 C 4.94 g/m*3 1.08 C 0 km/h
206 17-01-2021 13:00:00 1.34167 C 5 g/m*3 1.34 C 2.26667 km/h
207 17-01-2021 14:00:00 1.39167 C 5.06 g/m*3 1.39 C 2.4 km/h
208 17-01-2021 15:00:00 1.6 C 5.14 g/m*3 1.6 C 0.13333 km/h
209 17-01-2021 16:00:00 1.50833 C 5.11 g/m*3 1.51 C 0.4 km/h
210 17-01-2021 17:00:00 1.58333 C 5.18 g/m*3 1.58 C 1.46667 km/h
211 17-01-2021 18:00:00 1.69167 C 5.22 g/m*3 1.69 C 2.4 km/h
212 17-01-2021 19:00:00 1.8 C 5.26 g/m*3 1.8 C 2.13333 km/h
213 17-01-2021 20:00:00 1.86667 C 5.29 g/m*3 1.87 C 2.66667 km/h
214 17-01-2021 21:00:00 1.95833 C 5.32 g/m*3 1.96 C 2.13333 km/h
215 17-01-2021 22:00:00 2.11667 C 5.41 g/m*3 2.12 C 1.06667 km/h
216 17-01-2021 23:00:00 2.275 C 5.49 g/m*3 2.28 C 2 km/h
217 18-01-2021 00:00:00 2.34167 C 5.52 g/m*3 2.34 C 3.06667 km/h
218 18-01-2021 01:00:00 2.3 C 5.5 g/m*3 2.3 C 2.93333 km/h
219 18-01-2021 02:00:00 2.43333 C 5.55 g/m*3 2.43 C 2.8 km/h
220 18-01-2021 03:00:00 2.58333 C 5.61 g/m*3 2.58 C 2.53333 km/h
221 18-01-2021 04:00:00 2.04167 C 5.41 g/m*3 2.04 C 2.53333 km/h
222 18-01-2021 05:00:00 2.30833 C 5.5 g/m*3 2.31 C 4.00833 km/h
223 18-01-2021 06:00:00 2.43333 C 5.55 g/m*3 0.18 C 7.79167 km/h
224 18-01-2021 07:00:00 2.475 C 5.55 g/m*3 -0.21 C 9.41667 km/h
225 18-01-2021 08:00:00 2.59167 C 5.53 g/m*3 -0.08 C 9.41667 km/h
Sensor: Nr:Datum:Temp:Abs-Feuchte:Windchill:Wind:
Aussen-T/F 226 18-01-2021 09:00:00 2.83333 C 5.59 g/m*3 -0.02 C 10.36667 km/h
227 18-01-2021 10:00:00 3.44167 C 5.73 g/m*3 0.66 C 10.625 km/h
228 18-01-2021 11:00:00 4.13333 C 5.9 g/m*3 1.63 C 9.96667 km/h
229 18-01-2021 12:00:00 4.75833 C 6.01 g/m*3 2 C 11.83333 km/h
230 18-01-2021 13:00:00 5.51667 C 6.11 g/m*3 2.57 C 13.83333 km/h
231 18-01-2021 14:00:00 5.68333 C 6.01 g/m*3 2.2 C 17.83333 km/h
232 18-01-2021 15:00:00 5.41667 C 5.87 g/m*3 2.45 C 13.83333 km/h
233 18-01-2021 16:00:00 5 C 5.74 g/m*3 2.42 C 11.15833 km/h
234 18-01-2021 17:00:00 4.525 C 5.69 g/m*3 2.04 C 10.225 km/h
235 18-01-2021 18:00:00 4.56667 C 5.73 g/m*3 1.27 C 14.63333 km/h
236 18-01-2021 19:00:00 4.76667 C 5.83 g/m*3 1.16 C 17.03333 km/h
237 18-01-2021 20:00:00 4.8 C 5.9 g/m*3 1.07 C 17.975 km/h
238 18-01-2021 21:00:00 4.85833 C 5.93 g/m*3 1.59 C 14.9 km/h
239 18-01-2021 22:00:00 4.80833 C 5.99 g/m*3 1.51 C 15.03333 km/h
240 18-01-2021 23:00:00 4.99167 C 6.07 g/m*3 1.44 C 17.03333 km/h
241 19-01-2021 00:00:00 5.14167 C 6.01 g/m*3 2.07 C 14.1 km/h
242 19-01-2021 01:00:00 5.01667 C 5.83 g/m*3 1.59 C 16.23333 km/h
243 19-01-2021 02:00:00 4.66667 C 5.64 g/m*3 1.53 C 13.83333 km/h
244 19-01-2021 03:00:00 4.475 C 5.55 g/m*3 3.25 C 5.64167 km/h
245 19-01-2021 04:00:00 4.21667 C 5.52 g/m*3 4.22 C 4.96667 km/h
246 19-01-2021 05:00:00 4.475 C 5.37 g/m*3 1.68 C 11.675 km/h
247 19-01-2021 06:00:00 5.19167 C 5.42 g/m*3 1.8 C 16.23333 km/h
248 19-01-2021 07:00:00 5.43333 C 5.55 g/m*3 1.67 C 19.56667 km/h
249 19-01-2021 08:00:00 5.43333 C 5.59 g/m*3 1.33 C 22.525 km/h
250 19-01-2021 09:00:00 5.31667 C 5.53 g/m*3 1.08 C 23.45 km/h
Sensor: Nr:Datum:Temp:Abs-Feuchte:Windchill:Wind:
Aussen-T/F 251 19-01-2021 10:00:00 5.175 C 5.59 g/m*3 0.54 C 27.08333 km/h
252 19-01-2021 11:00:00 4.40833 C 5.75 g/m*3 -0.45 C 27.09167 km/h
253 19-01-2021 12:00:00 4.79167 C 5.83 g/m*3 -0.25 C 30.325 km/h
254 19-01-2021 13:00:00 5.15833 C 5.99 g/m*3 0.52 C 27.09167 km/h
255 19-01-2021 14:00:00 5.58333 C 6.17 g/m*3 1.32 C 24.4 km/h
256 19-01-2021 15:00:00 6.05833 C 6.31 g/m*3 2.06 C 23.19167 km/h
257 19-01-2021 16:00:00 5.625 C 6.29 g/m*3 1.54 C 22.8 km/h
258 19-01-2021 17:00:00 5.38333 C 6.27 g/m*3 1.52 C 20.23333 km/h
259 19-01-2021 18:00:00 5.29167 C 6.21 g/m*3 1.52 C 19.30833 km/h
260 19-01-2021 19:00:00 5.55833 C 6.3 g/m*3 1.97 C 18.36667 km/h
261 19-01-2021 20:00:00 5.65 C 6.15 g/m*3 2.04 C 18.76667 km/h
262 19-01-2021 21:00:00 5.20833 C 5.8 g/m*3 2.64 C 11.3 km/h
263 19-01-2021 22:00:00 4.83333 C 5.53 g/m*3 2.99 C 7.79167 km/h
264 19-01-2021 23:00:00 5.175 C 5.24 g/m*3 3.15 C 8.74167 km/h
265 20-01-2021 00:00:00 4.66667 C 5.19 g/m*3 4.67 C 3.075 km/h
266 20-01-2021 01:00:00 4.38333 C 5.21 g/m*3 4.38 C 0.66667 km/h
267 20-01-2021 02:00:00 3.61667 C 5.19 g/m*3 3.62 C 2.13333 km/h
268 20-01-2021 03:00:00 3.74167 C 5.33 g/m*3 2.46 C 5.49167 km/h
269 20-01-2021 04:00:00 4.875 C 5.36 g/m*3 4.88 C 2.4 km/h
270 20-01-2021 05:00:00 5.08333 C 5.43 g/m*3 5.08 C 4 km/h
271 20-01-2021 06:00:00 4.875 C 5.62 g/m*3 4.88 C 3.6 km/h
272 20-01-2021 07:00:00 4.66667 C 5.61 g/m*3 4.67 C 3.34167 km/h
273 20-01-2021 08:00:00 4.34167 C 5.55 g/m*3 4.34 C 1.73333 km/h
274 20-01-2021 09:00:00 4.49167 C 5.58 g/m*3 4.49 C 1.46667 km/h
275 20-01-2021 10:00:00 5.175 C 5.81 g/m*3 5.18 C 0.13333 km/h
Sensor: Nr:Datum:Temp:Abs-Feuchte:Windchill:Wind:
Aussen-T/F 276 20-01-2021 11:00:00 6.25833 C 5.83 g/m*3 6.26 C 0.26667 km/h
277 20-01-2021 12:00:00 7.40833 C 6.11 g/m*3 7.41 C 1.33333 km/h
278 20-01-2021 13:00:00 8.38333 C 6.45 g/m*3 8.38 C 0.93333 km/h
279 20-01-2021 14:00:00 9.1 C 6.67 g/m*3 9.1 C 2.26667 km/h
280 20-01-2021 15:00:00 9.29167 C 6.87 g/m*3 9.29 C 3.21667 km/h
281 20-01-2021 16:00:00 8.63333 C 6.92 g/m*3 8.63 C 1.33333 km/h
282 20-01-2021 17:00:00 7.06667 C 6.66 g/m*3 7.07 C 3.33333 km/h
283 20-01-2021 18:00:00 6.74167 C 6.74 g/m*3 6.74 C 3.86667 km/h
284 20-01-2021 19:00:00 7.15833 C 6.8 g/m*3 7.16 C 4.26667 km/h
285 20-01-2021 20:00:00 7.30833 C 6.81 g/m*3 7.31 C 3.2 km/h
286 20-01-2021 21:00:00 7.275 C 6.76 g/m*3 7.28 C 3.875 km/h
287 20-01-2021 22:00:00 8.225 C 6.75 g/m*3 8.23 C 3.73333 km/h
288 20-01-2021 23:00:00 9.16667 C 6.73 g/m*3 8.4 C 6.43333 km/h
289 21-01-2021 00:00:00 9.10833 C 6.64 g/m*3 8.4 C 6.16667 km/h
290 21-01-2021 01:00:00 8.825 C 6.64 g/m*3 8.11 C 6.025 km/h
291 21-01-2021 02:00:00 9.94167 C 6.78 g/m*3 9.54 C 5.50833 km/h
292 21-01-2021 03:00:00 10.125 C 6.66 g/m*3 9.01 C 8.725 km/h
293 21-01-2021 04:00:00 11.25 C 6.64 g/m*3 11.25 C 13.28333 km/h
294 21-01-2021 05:00:00 11.38333 C 6.93 g/m*3 11.38 C 11.01667 km/h
295 21-01-2021 06:00:00 11.19167 C 7.09 g/m*3 11.19 C 9.39167 km/h
296 21-01-2021 07:00:00 11.21667 C 7.47 g/m*3 11.22 C 8.725 km/h
297 21-01-2021 08:00:00 9.81667 C 8.04 g/m*3 8.99 C 7.10833 km/h
298 21-01-2021 09:00:00 8.05833 C 7.43 g/m*3 6.2 C 10.60833 km/h
299 21-01-2021 10:00:00 6.74167 C 6.9 g/m*3 4.45 C 11.53333 km/h
300 21-01-2021 11:00:00 6.9 C 6.86 g/m*3 4.86 C 10.34167 km/h
Sensor: Nr:Datum:Temp:Abs-Feuchte:Windchill:Wind:
Aussen-T/F 301 21-01-2021 12:00:00 7.275 C 6.72 g/m*3 4.37 C 16.36667 km/h
302 21-01-2021 13:00:00 7.825 C 6.68 g/m*3 6.5 C 7.8 km/h
303 21-01-2021 14:00:00 8.35 C 6.69 g/m*3 6.72 C 9.66667 km/h
304 21-01-2021 15:00:00 8.7 C 6.52 g/m*3 7.22 C 9.25833 km/h
305 21-01-2021 16:00:00 8.45 C 6.56 g/m*3 8.45 C 2.80833 km/h
306 21-01-2021 17:00:00 7.96667 C 6.64 g/m*3 7.97 C 2.13333 km/h
307 21-01-2021 18:00:00 7.98333 C 6.89 g/m*3 7.98 C 2 km/h
308 21-01-2021 19:00:00 7.75 C 7.21 g/m*3 7.75 C 2.275 km/h
309 21-01-2021 20:00:00 7.53333 C 7.49 g/m*3 7.53 C 3.46667 km/h
310 21-01-2021 21:00:00 8.43333 C 8.09 g/m*3 7.22 C 7.78333 km/h
311 21-01-2021 22:00:00 9.69167 C 8.38 g/m*3 7.63 C 14.23333 km/h
312 21-01-2021 23:00:00 9.89167 C 8.33 g/m*3 7.66 C 15.975 km/h
313 22-01-2021 00:00:00 10.19167 C 8.21 g/m*3 7.95 C 16.775 km/h
314 22-01-2021 01:00:00 10.125 C 8.14 g/m*3 8.43 C 12.21667 km/h
315 22-01-2021 02:00:00 9.64167 C 8.03 g/m*3 8.26 C 9.675 km/h
316 22-01-2021 03:00:00 9.86667 C 8.08 g/m*3 7.67 C 15.7 km/h
317 22-01-2021 04:00:00 10.075 C 8.18 g/m*3 8.08 C 14.36667 km/h
318 22-01-2021 05:00:00 8.275 C 7.4 g/m*3 6.24 C 11.925 km/h
319 22-01-2021 06:00:00 6.05 C 6.73 g/m*3 6.05 C 2.13333 km/h
320 22-01-2021 07:00:00 5.09167 C 6.37 g/m*3 5.09 C 2.53333 km/h
321 22-01-2021 08:00:00 4.575 C 6.23 g/m*3 4.58 C 1.86667 km/h
322 22-01-2021 09:00:00 4.44167 C 6.22 g/m*3 4.44 C 2.8 km/h
323 22-01-2021 10:00:00 4.68333 C 6.32 g/m*3 4.68 C 1.86667 km/h
324 22-01-2021 11:00:00 5.06667 C 6.49 g/m*3 5.07 C 2.53333 km/h
325 22-01-2021 12:00:00 5.53333 C 6.63 g/m*3 5.53 C 2.53333 km/h
Sensor: Nr:Datum:Temp:Abs-Feuchte:Windchill:Wind:
Aussen-T/F 326 22-01-2021 13:00:00 5.96667 C 6.61 g/m*3 5.1 C 5.21667 km/h
327 22-01-2021 14:00:00 6.05 C 6.56 g/m*3 5.06 C 5.60833 km/h
328 22-01-2021 15:00:00 6.24167 C 6.55 g/m*3 6.24 C 2.13333 km/h
329 22-01-2021 16:00:00 5.76667 C 6.46 g/m*3 5.77 C 2.26667 km/h
330 22-01-2021 17:00:00 3.85 C 5.78 g/m*3 3.85 C 4.8 km/h
331 22-01-2021 18:00:00 2.825 C 5.5 g/m*3 2.83 C 0.26667 km/h
332 22-01-2021 19:00:00 2.71667 C 5.52 g/m*3 2.72 C 0 km/h
333 22-01-2021 20:00:00 2.55 C 5.48 g/m*3 2.55 C 0 km/h
334 22-01-2021 21:00:00 2.59167 C 5.54 g/m*3 2.59 C 0.66667 km/h
335 22-01-2021 22:00:00 2.64167 C 5.57 g/m*3 2.64 C 0.13333 km/h
336 22-01-2021 23:00:00 2.55833 C 5.54 g/m*3 2.56 C 0.53333 km/h

Maximal/Minimal-Werte vom 09.01.2021 - 22.01.2021

Sensor Min Max Avg
Temp
(Aussen-T/F)
-4.2 °C
11-01-2021  06:20:00
11.6 °C
21-01-2021  04:30:00
2.94 °C
Abs-Feuchte
(Aussen-T/F)
3.46 g/m*3
11-01-2021  06:00:00
8.38 g/m*3
21-01-2021  22:00:00
5.28 g/m*3
Windchill
(Aussen-T/F)
-4.13 C
11-01-2021  06:00:00
11.38 C
21-01-2021  05:00:00
1.91 C

Die Daten stammen von einer Davis Vantage Pro 2 Wetter-Station und werden unter Linux mit der Software wview2wettercgi und aufbereitet. Alle Angaben erfolgen ohne Gewähr für ihre Vollständigkeit oder Richtigkeit.
Kontakt: Rainer Krienke krienke@uni-koblenz.de . Meine Webseiten an der Uni Koblenz oder privat.
Version: $Revision: 0.78 $